Babuna, Macedonia

5:45 PM CEST on May 24, 2017 (GMT +0200)
Skopje | | Change Station

Elev 784 ft 41.97 °N, 21.65 °E | Updated 15 minutes ago

Mostly Cloudy
Mostly Cloudy
70 °F
Feels Like 70 °F
N
10
Wind Variable Wind from NE

Today
High -- | Low -- °F
--% Chance of Precip.
Yesterday
High -- | Low -- °F
Precip. -- in
Pressure 29.95 in
Visibility 6.2 miles
Clouds Few 3000 ft
Scattered Clouds 4000 ft
Dew Point 54 °F
Humidity 56%
Rainfall 0.00 in
Snow Depth Not available.
5:05 AM 7:54 PM
Waning Crescent, 2% visible
METAR LWSK 241530Z 04009KT 9999 TS FEW030CB SCT040 21/12 Q1014 TEMPO 5000 TSRA SCT033CB BKN040
Pressure 29.95 in
Visibility 6.2 miles
Clouds Few 3000 ft
Scattered Clouds 4000 ft
Dew Point 54 °F
Humidity 56%
Rainfall 0.00 in
Snow Depth Not available.
5:05 AM 7:54 PM
Waning Crescent, 2% visible
METAR LWSK 241530Z 04009KT 9999 TS FEW030CB SCT040 21/12 Q1014 TEMPO 5000 TSRA SCT033CB BKN040

Get Severe Weather Alerts

Thanks for signing up!

Be on the lookout for a verification email in your inbox.

You'll start receiving the daily forecast at 6 AM.

×

10-Day Weather Forecast

×

Almanac

Astronomy

May. 24, 2017 Rise Set
Actual Time
Civil Twilight
Nautical Twilight
Astronomical Twilight
Moon
Length of Visible Light
Length of Day
Tomorrow will be .
, % of the Moon is Illuminated

Today's Extremes

Country Highs Country Lows

Community

WunderPhotos

Category 6

Welcome to Category 6. This is the collective home for Weather Underground's featured writeups by Dr. Jeff Masters (right), Bob Henson (left), Chris Burt, and other regular contributors.

Nearby

Air Quality

  Air Quality AQ Index Pollutant
Not available.

Snow Depth

Station Depth Elevation

Earthquake Activity

City Distance Mag. Time & Date
Minimum magnitude displayed is 2.5.

Coastal Water Temperatures

Place Temperature

Stations

Nearby Weather Stations

Station Location Temp. Windchill Dew Point Humidity Wind Precip. Elev Updated Type